CheckWX is a tool to help pilots better visualize weather data.  It is not intended as a substitute for an official pre-flight weather briefing.

04:20:33 UTC

KHHR METAR
Jack Northrop Field / Hawthorne Municipal Airport
Hawthorne, California, USA
Current

28 mins ago

KHHR 270353Z 28005KT 10SM BKN013 18/14 A2997 RMK AO2 SLP147 T01830144
Observed
Jun-27 @ 03:53 UTC
Wind
  • 280° at 5 KTS
Visibility
10 SM
Flight Rules
MVFR
Cloud Levels
  • Broken at 1,300' AGL
Temperature
18°C / 64°F
Dewpoint
14°C / 57°F
Humidity
78%
Altimeter
29.97" Hg
Pressure
1014.92 hPa
Previous

35 mins ago

KHHR 270346Z 28005KT 10SM BKN013 18/14 A2997 RMK AO2 T01830144
Observed
Jun-27 @ 03:46 UTC
Wind
  • 280° at 5 KTS
Visibility
10 SM
Flight Rules
MVFR
Cloud Levels
  • Broken at 1,300' AGL
Temperature
18°C / 64°F
Dewpoint
14°C / 57°F
Humidity
78%
Altimeter
29.97" Hg
Pressure
1014.92 hPa
Previous

1 hour ago

KHHR 270253Z 28006KT 10SM CLR 19/14 A2996 RMK AO2 SLP144 T01890144 55001
Observed
Jun-27 @ 02:53 UTC
Wind
  • 280° at 6 KTS
Visibility
10 SM
Flight Rules
VFR
Cloud Levels
  • Clear skies
Temperature
19°C / 66°F
Dewpoint
14°C / 57°F
Humidity
73%
Altimeter
29.96" Hg
Pressure
1014.52 hPa